Plum Coulee, Canada
Current Conditions -  °F | °C
As of 2:55 PM on Saturday 25 Oct 2014 (Local Time) from K2C8 Reporting Station
Clear Clear  
Wind Chill: 59°   Ceiling: Unl
Heat Index: 59°   Visibility: 10mi
Dew Point: 25°   Wind: 14mph
Humidity: 27%   Direction: 310°NW
Pressure: 30.03"   Gusts: 20mph
Location:  49.18°N, 97.77°W
Report Text: K2C8 251955Z AUTO 31012G17KT 10SM CLR 15/M04 A3003 RMK AO2
Loading
Personal Weather Stations






























Interactive Weather Map
Tropical Storm Tracking
New forecast layout! Learn more

10-Day Weather Forecast

Advertisements
Track Severe Weather on mobile